Time;durP1;ratioP1;P1;durP2;ratioP2;P2;SDS_P1;SDS_P2;PMS_P1;PMS_P2;Temp;Humidity;BMP_temperature;BMP_pressure;BME280_temperature;BME280_humidity;BME280_pressure;Samples;Min_cycle;Max_cycle;Signal;HPM_P1;HPM_P2
2024/01/21 00:01:34;;;;;;;7.28;6.20;;;;;;;;;;5051575;27;99955;-74
2024/01/21 00:04:00;;;;;;;7.00;5.10;;;;;;;;;;5047871;27;99310;-75
2024/01/21 00:06:27;;;;;;;6.60;5.68;;;;;;;;;;5046813;27;100121;-74
2024/01/21 00:08:53;;;;;;;12.00;6.20;;;;;;;;;;5047885;27;100891;-75
2024/01/21 00:11:20;;;;;;;6.55;5.10;;;;;;;;;;5047766;27;100411;-74
2024/01/21 00:13:46;;;;;;;6.80;5.00;;;;;;;;;;5055066;27;99503;-74
2024/01/21 00:16:13;;;;;;;7.95;4.72;;;;;;;;;;5056017;27;100659;-75
2024/01/21 00:18:39;;;;;;;8.52;5.95;;;;;;;;;;5046851;27;100241;-74
2024/01/21 00:21:06;;;;;;;5.57;5.07;;;;;;;;;;5057538;27;99899;-74
2024/01/21 00:23:32;;;;;;;8.55;6.18;;;;;;;;;;5070516;27;99115;-75
2024/01/21 00:25:59;;;;;;;11.75;5.07;;;;;;;;;;5065818;27;101584;-75
2024/01/21 00:28:25;;;;;;;7.22;5.82;;;;;;;;;;5067004;27;99958;-75
2024/01/21 00:30:52;;;;;;;9.63;6.22;;;;;;;;;;5067893;27;99907;-74
2024/01/21 00:33:20;;;;;;;6.80;5.88;;;;;;;;;;5067255;27;99833;-74
2024/01/21 00:35:46;;;;;;;7.38;5.97;;;;;;;;;;5068159;27;100040;-74
2024/01/21 00:38:13;;;;;;;4.68;4.28;;;;;;;;;;5067646;27;100341;-74
2024/01/21 00:40:39;;;;;;;7.10;5.22;;;;;;;;;;5065391;27;99865;-74
2024/01/21 00:43:07;;;;;;;7.78;5.25;;;;;;;;;;5067751;27;99771;-75
2024/01/21 00:45:34;;;;;;;7.65;5.75;;;;;;;;;;5070980;27;100702;-74
2024/01/21 00:48:00;;;;;;;5.20;4.50;;;;;;;;;;5067426;27;99737;-74
2024/01/21 00:50:27;;;;;;;7.40;5.80;;;;;;;;;;5066741;27;100339;-74
2024/01/21 00:52:53;;;;;;;7.53;5.80;;;;;;;;;;5067127;27;98994;-74
2024/01/21 00:55:20;;;;;;;11.15;6.47;;;;;;;;;;5065175;27;100035;-74
2024/01/21 00:57:46;;;;;;;8.07;4.95;;;;;;;;;;5066438;27;100471;-74
2024/01/21 01:00:13;;;;;;;5.28;4.88;;;;;;;;;;5067700;27;100396;-74
2024/01/21 01:02:40;;;;;;;6.03;5.13;;;;;;;;;;5046112;27;99831;-74
2024/01/21 01:05:06;;;;;;;5.75;4.72;;;;;;;;;;5046475;27;100097;-74
2024/01/21 01:07:34;;;;;;;5.22;4.72;;;;;;;;;;5048180;27;98756;-74
2024/01/21 01:10:01;;;;;;;4.03;3.72;;;;;;;;;;5042476;27;99180;-74
2024/01/21 01:12:27;;;;;;;4.47;4.15;;;;;;;;;;5058392;27;99367;-75
2024/01/21 01:14:53;;;;;;;8.32;5.88;;;;;;;;;;5066061;27;98522;-74
2024/01/21 01:17:20;;;;;;;7.10;5.30;;;;;;;;;;5051774;27;100391;-74
2024/01/21 01:19:47;;;;;;;4.65;4.30;;;;;;;;;;5044851;27;102060;-74
2024/01/21 01:22:13;;;;;;;4.85;4.40;;;;;;;;;;5046509;27;100650;-74
2024/01/21 01:24:40;;;;;;;5.15;4.65;;;;;;;;;;5046595;27;99322;-75
2024/01/21 01:27:09;;;;;;;8.05;4.90;;;;;;;;;;5050884;27;100764;-74
2024/01/21 01:29:35;;;;;;;11.15;4.63;;;;;;;;;;5064920;27;100611;-75
2024/01/21 01:32:02;;;;;;;6.32;4.47;;;;;;;;;;5066716;27;99931;-74
2024/01/21 01:34:28;;;;;;;5.18;4.45;;;;;;;;;;5066728;27;99907;-74
2024/01/21 01:36:55;;;;;;;6.10;4.40;;;;;;;;;;5067009;27;98550;-74
2024/01/21 01:39:22;;;;;;;4.30;3.58;;;;;;;;;;5055208;27;100123;-74
2024/01/21 01:41:48;;;;;;;3.40;3.03;;;;;;;;;;5046617;27;99946;-74
2024/01/21 01:44:15;;;;;;;4.68;3.63;;;;;;;;;;5046379;27;101010;-75
2024/01/21 01:46:41;;;;;;;4.28;3.97;;;;;;;;;;5046234;27;99930;-74
2024/01/21 01:49:09;;;;;;;3.55;3.25;;;;;;;;;;5049548;27;99854;-74
2024/01/21 01:51:36;;;;;;;3.78;3.47;;;;;;;;;;5045444;27;99272;-74
2024/01/21 01:54:03;;;;;;;3.38;3.13;;;;;;;;;;5046247;27;100214;-74
2024/01/21 01:56:30;;;;;;;4.95;3.05;;;;;;;;;;5046433;27;100177;-74
2024/01/21 01:58:58;;;;;;;3.47;3.20;;;;;;;;;;5045067;27;99217;-73
2024/01/21 02:01:25;;;;;;;3.25;3.00;;;;;;;;;;5063657;27;100211;-74
2024/01/21 02:03:51;;;;;;;8.00;3.92;;;;;;;;;;5066245;27;99419;-74
2024/01/21 02:06:18;;;;;;;4.45;3.67;;;;;;;;;;5065449;27;98874;-74
2024/01/21 02:08:44;;;;;;;5.35;3.42;;;;;;;;;;5063651;27;101239;-74
2024/01/21 02:11:11;;;;;;;4.93;3.08;;;;;;;;;;5068986;27;100288;-74
2024/01/21 02:13:37;;;;;;;3.45;3.17;;;;;;;;;;5066652;27;100238;-74
2024/01/21 02:16:04;;;;;;;3.90;3.40;;;;;;;;;;5064043;27;99332;-73
2024/01/21 02:18:31;;;;;;;6.22;3.30;;;;;;;;;;5065253;27;100013;-74
2024/01/21 02:20:58;;;;;;;5.18;3.67;;;;;;;;;;5065291;27;98781;-74
2024/01/21 02:23:24;;;;;;;4.53;3.60;;;;;;;;;;5066526;27;100092;-74
2024/01/21 02:25:51;;;;;;;3.63;3.33;;;;;;;;;;5063308;27;99933;-74
2024/01/21 02:28:17;;;;;;;3.20;2.90;;;;;;;;;;5059921;27;99899;-74
2024/01/21 02:30:44;;;;;;;5.47;3.42;;;;;;;;;;5060815;27;100865;-74
2024/01/21 02:33:11;;;;;;;5.20;3.30;;;;;;;;;;5056676;27;99918;-74
2024/01/21 02:35:37;;;;;;;4.70;3.78;;;;;;;;;;5057883;27;100780;-74
2024/01/21 02:38:04;;;;;;;3.30;3.00;;;;;;;;;;5061040;27;99959;-74
2024/01/21 02:40:31;;;;;;;3.35;3.10;;;;;;;;;;5060508;27;100206;-75
2024/01/21 02:42:57;;;;;;;10.52;4.90;;;;;;;;;;5060422;27;99735;-74
2024/01/21 02:45:23;;;;;;;3.50;3.08;;;;;;;;;;5061150;27;99982;-74
2024/01/21 02:47:50;;;;;;;3.83;2.80;;;;;;;;;;5059248;27;99844;-74
2024/01/21 02:50:16;;;;;;;3.72;3.13;;;;;;;;;;5061429;27;99872;-74
2024/01/21 02:52:43;;;;;;;8.15;4.00;;;;;;;;;;5055745;27;100271;-74
2024/01/21 02:55:09;;;;;;;2.88;2.67;;;;;;;;;;5058719;27;100230;-74
2024/01/21 02:57:36;;;;;;;3.50;3.20;;;;;;;;;;5059782;27;100113;-74
2024/01/21 03:00:04;;;;;;;2.70;2.50;;;;;;;;;;5058608;27;99622;-74
2024/01/21 03:02:31;;;;;;;4.68;2.90;;;;;;;;;;5057523;27;99310;-75
2024/01/21 03:04:58;;;;;;;5.13;2.85;;;;;;;;;;5058294;27;98918;-74
2024/01/21 03:07:24;;;;;;;4.05;3.15;;;;;;;;;;5059113;27;100703;-74
2024/01/21 03:09:51;;;;;;;5.20;2.65;;;;;;;;;;5058143;27;100263;-74
2024/01/21 03:12:17;;;;;;;4.15;2.95;;;;;;;;;;5057835;27;100161;-75
2024/01/21 03:14:44;;;;;;;2.42;2.33;;;;;;;;;;5063230;27;99082;-74
2024/01/21 03:17:11;;;;;;;3.75;3.45;;;;;;;;;;5055404;27;100169;-74
2024/01/21 03:19:37;;;;;;;3.88;3.53;;;;;;;;;;5051667;27;100230;-74
2024/01/21 03:22:04;;;;;;;2.85;2.58;;;;;;;;;;5057786;27;100907;-74
2024/01/21 03:24:31;;;;;;;5.20;3.42;;;;;;;;;;5059729;27;99948;-74
2024/01/21 03:26:57;;;;;;;9.77;3.50;;;;;;;;;;5058859;27;99908;-74
2024/01/21 03:29:24;;;;;;;4.13;3.10;;;;;;;;;;5058031;27;100135;-74
2024/01/21 03:31:50;;;;;;;3.40;2.55;;;;;;;;;;5060444;27;99925;-74
2024/01/21 03:34:17;;;;;;;3.30;3.00;;;;;;;;;;5062376;27;100101;-73
2024/01/21 03:36:43;;;;;;;6.07;3.45;;;;;;;;;;5065537;27;100171;-73
2024/01/21 03:39:10;;;;;;;4.93;3.70;;;;;;;;;;5054406;27;99162;-73
2024/01/21 03:41:36;;;;;;;7.82;3.38;;;;;;;;;;5062960;27;100468;-73
2024/01/21 03:44:03;;;;;;;3.67;3.38;;;;;;;;;;5062148;27;100864;-73
2024/01/21 03:46:30;;;;;;;2.80;2.67;;;;;;;;;;5063362;27;100164;-75
2024/01/21 03:48:56;;;;;;;3.53;3.22;;;;;;;;;;5059050;27;100054;-73
2024/01/21 03:51:23;;;;;;;3.60;3.30;;;;;;;;;;5061903;27;100069;-73
2024/01/21 03:53:50;;;;;;;4.43;3.67;;;;;;;;;;5061471;27;99866;-73
2024/01/21 03:56:17;;;;;;;2.85;2.65;;;;;;;;;;5062090;27;100227;-74
2024/01/21 03:58:44;;;;;;;3.45;3.15;;;;;;;;;;5065784;27;99029;-74
2024/01/21 04:01:10;;;;;;;3.53;2.97;;;;;;;;;;5062156;27;100437;-74
2024/01/21 04:03:37;;;;;;;3.25;3.05;;;;;;;;;;5062870;27;100089;-74
2024/01/21 04:06:04;;;;;;;3.45;3.25;;;;;;;;;;5062477;27;100249;-74
2024/01/21 04:08:30;;;;;;;3.45;3.15;;;;;;;;;;5062191;27;99510;-74
2024/01/21 04:10:57;;;;;;;3.58;3.38;;;;;;;;;;5060300;27;100191;-74
2024/01/21 04:13:23;;;;;;;3.70;3.00;;;;;;;;;;5060994;27;100682;-73
2024/01/21 04:15:49;;;;;;;5.60;3.88;;;;;;;;;;5061706;27;100088;-73
2024/01/21 04:18:16;;;;;;;4.22;2.33;;;;;;;;;;5059866;27;100205;-73
2024/01/21 04:20:43;;;;;;;3.50;3.20;;;;;;;;;;5066187;27;101399;-73
2024/01/21 04:23:09;;;;;;;2.80;2.58;;;;;;;;;;5059092;27;99330;-73
2024/01/21 04:25:36;;;;;;;3.53;3.20;;;;;;;;;;5058123;27;99956;-74
2024/01/21 04:28:02;;;;;;;3.70;3.38;;;;;;;;;;5061984;27;99471;-75
2024/01/21 04:30:28;;;;;;;3.58;3.28;;;;;;;;;;5059200;27;102232;-74
2024/01/21 04:32:55;;;;;;;3.65;3.40;;;;;;;;;;5062475;27;99290;-74
2024/01/21 04:35:21;;;;;;;3.80;3.35;;;;;;;;;;5062305;27;101369;-74
2024/01/21 04:37:48;;;;;;;3.70;3.35;;;;;;;;;;5061844;27;100619;-75
2024/01/21 04:40:14;;;;;;;11.10;2.55;;;;;;;;;;5057747;27;100795;-74
2024/01/21 04:42:41;;;;;;;5.13;3.10;;;;;;;;;;5064808;27;100135;-74
2024/01/21 04:45:08;;;;;;;2.85;2.70;;;;;;;;;;5056359;27;101066;-74
2024/01/21 04:47:37;;;;;;;2.70;2.50;;;;;;;;;;5059752;27;101299;-75
2024/01/21 04:50:04;;;;;;;3.05;2.80;;;;;;;;;;5060214;27;98976;-74
2024/01/21 04:52:30;;;;;;;3.92;2.72;;;;;;;;;;5063025;27;99964;-74
2024/01/21 04:54:57;;;;;;;2.95;2.75;;;;;;;;;;5055963;27;100518;-74
2024/01/21 04:57:23;;;;;;;3.13;2.92;;;;;;;;;;5060430;27;100201;-74
2024/01/21 04:59:50;;;;;;;3.67;2.88;;;;;;;;;;5062112;27;99991;-75
2024/01/21 05:02:16;;;;;;;3.15;2.88;;;;;;;;;;5061583;27;99823;-74
2024/01/21 05:04:43;;;;;;;3.63;3.33;;;;;;;;;;5059384;27;100636;-74
2024/01/21 05:07:09;;;;;;;3.63;3.17;;;;;;;;;;5060227;27;100515;-74
2024/01/21 05:09:36;;;;;;;3.95;3.53;;;;;;;;;;5062689;27;100009;-74
2024/01/21 05:12:02;;;;;;;3.25;3.00;;;;;;;;;;5059005;27;99867;-74
2024/01/21 05:14:29;;;;;;;3.75;3.40;;;;;;;;;;5057658;27;100413;-75
2024/01/21 05:16:55;;;;;;;4.25;3.50;;;;;;;;;;5059276;27;100002;-74
2024/01/21 05:19:22;;;;;;;2.80;2.60;;;;;;;;;;5060997;27;100366;-74
2024/01/21 05:21:48;;;;;;;5.25;3.05;;;;;;;;;;5058858;27;100557;-74
2024/01/21 05:24:15;;;;;;;4.45;3.72;;;;;;;;;;5064794;27;100044;-74
2024/01/21 05:26:42;;;;;;;4.03;3.50;;;;;;;;;;5062603;27;100174;-74
2024/01/21 05:29:08;;;;;;;6.22;4.75;;;;;;;;;;5061052;27;99931;-74
2024/01/21 05:31:34;;;;;;;3.47;3.28;;;;;;;;;;5062103;27;99953;-74
2024/01/21 05:34:01;;;;;;;5.10;3.67;;;;;;;;;;5060241;27;99981;-74
2024/01/21 05:36:27;;;;;;;4.88;3.50;;;;;;;;;;5059581;27;100564;-74
2024/01/21 05:38:54;;;;;;;3.50;3.28;;;;;;;;;;5061082;27;100041;-74
2024/01/21 05:41:20;;;;;;;4.85;3.47;;;;;;;;;;5062073;27;100203;-74
2024/01/21 05:43:47;;;;;;;5.85;3.53;;;;;;;;;;5059678;27;101680;-75
2024/01/21 05:46:13;;;;;;;22.67;3.60;;;;;;;;;;5063353;27;99925;-75
2024/01/21 05:48:40;;;;;;;3.90;3.60;;;;;;;;;;5059588;27;100083;-74
2024/01/21 05:51:06;;;;;;;3.58;3.22;;;;;;;;;;5059964;27;100647;-75
2024/01/21 05:53:33;;;;;;;4.07;3.67;;;;;;;;;;5061609;27;99671;-75
2024/01/21 05:55:59;;;;;;;4.85;3.60;;;;;;;;;;5060323;27;100897;-74
2024/01/21 05:58:27;;;;;;;3.40;3.10;;;;;;;;;;5058970;27;101690;-74
2024/01/21 06:00:53;;;;;;;8.73;4.35;;;;;;;;;;5059373;27;100037;-74
2024/01/21 06:03:20;;;;;;;4.15;3.40;;;;;;;;;;5054950;27;99861;-75
2024/01/21 06:05:46;;;;;;;3.90;3.42;;;;;;;;;;5057877;27;99823;-73
2024/01/21 06:08:13;;;;;;;7.13;3.53;;;;;;;;;;5063275;27;100454;-74
2024/01/21 06:10:39;;;;;;;3.58;3.35;;;;;;;;;;5060395;27;99068;-74
2024/01/21 06:13:06;;;;;;;3.70;3.40;;;;;;;;;;5060956;27;101180;-74
2024/01/21 06:15:32;;;;;;;4.10;3.70;;;;;;;;;;5060110;27;100631;-74
2024/01/21 06:17:59;;;;;;;8.15;4.00;;;;;;;;;;5055544;27;100217;-74
2024/01/21 06:20:25;;;;;;;4.10;3.80;;;;;;;;;;5056291;27;100741;-74
2024/01/21 06:22:52;;;;;;;7.05;4.40;;;;;;;;;;5061340;27;99978;-74
2024/01/21 06:25:18;;;;;;;4.43;4.03;;;;;;;;;;5058210;27;100498;-74
2024/01/21 06:27:45;;;;;;;5.88;4.03;;;;;;;;;;5059544;27;99556;-74
2024/01/21 06:30:12;;;;;;;6.53;4.07;;;;;;;;;;5064421;27;98998;-74
2024/01/21 06:32:39;;;;;;;7.72;4.20;;;;;;;;;;5057162;27;100559;-74
2024/01/21 06:35:19;;;;;;;7.25;4.25;;;;;;;;;;5055220;27;100483;-74
2024/01/21 06:37:45;;;;;;;3.50;3.05;;;;;;;;;;5059087;27;100544;-74
2024/01/21 06:40:11;;;;;;;6.72;4.22;;;;;;;;;;5059884;27;99322;-74
2024/01/21 06:42:38;;;;;;;5.60;4.25;;;;;;;;;;5058980;27;99803;-74
2024/01/21 06:45:05;;;;;;;6.70;3.97;;;;;;;;;;5057579;27;99347;-74
2024/01/21 06:47:32;;;;;;;3.88;3.58;;;;;;;;;;5052628;27;100301;-74
2024/01/21 06:49:58;;;;;;;6.13;3.63;;;;;;;;;;5059212;27;99987;-74
2024/01/21 06:52:24;;;;;;;3.88;3.53;;;;;;;;;;5062423;27;99376;-74
2024/01/21 06:54:51;;;;;;;5.65;3.45;;;;;;;;;;5061107;27;102042;-74
2024/01/21 06:57:17;;;;;;;5.43;4.68;;;;;;;;;;5059434;27;99672;-74
2024/01/21 06:59:44;;;;;;;3.80;3.58;;;;;;;;;;5049698;27;99672;-74
2024/01/21 07:02:11;;;;;;;3.83;3.53;;;;;;;;;;5057058;27;99815;-74
2024/01/21 07:04:38;;;;;;;3.60;3.30;;;;;;;;;;5061048;27;100778;-74
2024/01/21 07:07:05;;;;;;;3.97;3.67;;;;;;;;;;5064942;27;100569;-74
2024/01/21 07:09:31;;;;;;;3.83;3.55;;;;;;;;;;5069215;27;98981;-74
2024/01/21 07:11:58;;;;;;;3.47;3.17;;;;;;;;;;5068828;27;98957;-74
2024/01/21 07:14:24;;;;;;;3.63;3.30;;;;;;;;;;5072320;27;100086;-74
2024/01/21 07:16:51;;;;;;;4.45;4.05;;;;;;;;;;5061648;27;100565;-74
2024/01/21 07:19:17;;;;;;;3.83;3.50;;;;;;;;;;5051019;27;99779;-74
2024/01/21 07:21:44;;;;;;;4.40;4.10;;;;;;;;;;5068433;27;99971;-73
2024/01/21 07:24:10;;;;;;;6.03;4.15;;;;;;;;;;5068956;27;100225;-75
2024/01/21 07:26:37;;;;;;;5.78;4.60;;;;;;;;;;5067877;27;100343;-73
2024/01/21 07:29:03;;;;;;;7.45;4.40;;;;;;;;;;5067308;27;98895;-73
2024/01/21 07:31:30;;;;;;;4.60;3.72;;;;;;;;;;5068799;27;99900;-73
2024/01/21 07:33:56;;;;;;;4.80;4.22;;;;;;;;;;5068127;27;100471;-73
2024/01/21 07:36:23;;;;;;;6.57;5.13;;;;;;;;;;5058295;27;100133;-73
2024/01/21 07:38:49;;;;;;;4.57;4.18;;;;;;;;;;5068969;27;100355;-74
2024/01/21 07:41:16;;;;;;;4.28;3.88;;;;;;;;;;5067550;27;99878;-74
2024/01/21 07:43:42;;;;;;;7.45;4.80;;;;;;;;;;5068674;27;100071;-74
2024/01/21 07:46:09;;;;;;;5.97;4.85;;;;;;;;;;5069127;27;99339;-74
2024/01/21 07:48:35;;;;;;;4.15;3.75;;;;;;;;;;5068827;27;99997;-74
2024/01/21 07:51:02;;;;;;;6.13;4.20;;;;;;;;;;5066276;27;99961;-73
2024/01/21 07:53:29;;;;;;;4.80;4.25;;;;;;;;;;5067209;27;100589;-74
2024/01/21 07:55:56;;;;;;;4.60;3.75;;;;;;;;;;5071417;27;100096;-73
2024/01/21 07:58:22;;;;;;;5.90;3.45;;;;;;;;;;5068052;27;99287;-74
2024/01/21 08:00:49;;;;;;;5.22;4.05;;;;;;;;;;5068943;27;100289;-75
2024/01/21 08:03:15;;;;;;;5.72;4.70;;;;;;;;;;5067558;27;99907;-75
2024/01/21 08:05:42;;;;;;;10.43;4.43;;;;;;;;;;5068510;27;100340;-75
2024/01/21 08:08:08;;;;;;;7.45;4.68;;;;;;;;;;5066109;27;100010;-75
2024/01/21 08:10:35;;;;;;;5.90;4.68;;;;;;;;;;5066872;27;100394;-73
2024/01/21 08:13:01;;;;;;;4.88;4.38;;;;;;;;;;5068317;27;100633;-73
2024/01/21 08:15:28;;;;;;;4.00;3.70;;;;;;;;;;5067868;27;99921;-74
2024/01/21 08:17:54;;;;;;;7.68;5.15;;;;;;;;;;5070241;27;99964;-75
2024/01/21 08:20:21;;;;;;;7.88;4.20;;;;;;;;;;5067268;27;99996;-77
2024/01/21 08:22:47;;;;;;;9.60;4.10;;;;;;;;;;5068106;27;100403;-75
2024/01/21 08:25:14;;;;;;;3.92;3.60;;;;;;;;;;5066300;27;101235;-74
2024/01/21 08:27:41;;;;;;;4.97;4.28;;;;;;;;;;5068178;27;99960;-74
2024/01/21 08:30:08;;;;;;;6.38;4.90;;;;;;;;;;5067927;27;100162;-75
2024/01/21 08:32:35;;;;;;;4.97;4.15;;;;;;;;;;5067689;27;99800;-76
2024/01/21 08:35:01;;;;;;;4.28;3.35;;;;;;;;;;5067743;27;99971;-77
2024/01/21 08:37:28;;;;;;;4.72;4.22;;;;;;;;;;5065927;27;99063;-76
2024/01/21 08:39:54;;;;;;;4.97;4.25;;;;;;;;;;5067095;27;100978;-76
2024/01/21 08:42:23;;;;;;;4.28;3.95;;;;;;;;;;5049485;27;100102;-76
2024/01/21 08:44:50;;;;;;;4.78;4.22;;;;;;;;;;5049059;27;100637;-75
2024/01/21 08:47:17;;;;;;;4.45;4.07;;;;;;;;;;5046298;27;99061;-75
2024/01/21 08:49:43;;;;;;;6.07;4.82;;;;;;;;;;5052006;27;99086;-75
2024/01/21 08:52:11;;;;;;;8.82;4.30;;;;;;;;;;5059813;27;100431;-75
2024/01/21 08:54:37;;;;;;;5.47;4.63;;;;;;;;;;5056192;27;98895;-75
2024/01/21 08:57:05;;;;;;;4.70;4.22;;;;;;;;;;5051771;27;99892;-74
2024/01/21 08:59:32;;;;;;;5.88;3.58;;;;;;;;;;5053516;27;100810;-75
2024/01/21 09:01:59;;;;;;;4.13;3.70;;;;;;;;;;5058372;27;100432;-75
2024/01/21 09:04:25;;;;;;;5.35;4.10;;;;;;;;;;5053055;27;101094;-76
2024/01/21 09:06:52;;;;;;;3.85;3.55;;;;;;;;;;5057542;27;100119;-75
2024/01/21 09:09:18;;;;;;;7.38;4.40;;;;;;;;;;5054192;27;100199;-77
2024/01/21 09:11:47;;;;;;;6.25;3.47;;;;;;;;;;5053074;27;100616;-76
2024/01/21 09:14:13;;;;;;;5.00;4.55;;;;;;;;;;5046758;27;101489;-76
2024/01/21 09:16:41;;;;;;;4.90;4.40;;;;;;;;;;5054539;27;100187;-77
2024/01/21 09:19:07;;;;;;;6.43;4.18;;;;;;;;;;5051224;27;99464;-76
2024/01/21 09:21:34;;;;;;;7.40;3.70;;;;;;;;;;5050900;27;99960;-75
2024/01/21 09:24:04;;;;;;;5.15;4.65;;;;;;;;;;5059583;27;99150;-75
2024/01/21 09:26:31;;;;;;;6.65;4.18;;;;;;;;;;5058808;27;98962;-76
2024/01/21 09:28:58;;;;;;;5.60;4.78;;;;;;;;;;5059879;27;99347;-76
2024/01/21 09:31:24;;;;;;;4.35;3.80;;;;;;;;;;5055324;27;99880;-76
2024/01/21 09:33:51;;;;;;;4.68;4.22;;;;;;;;;;5053134;27;99910;-75
2024/01/21 09:36:19;;;;;;;3.95;3.67;;;;;;;;;;5054438;27;99956;-75
2024/01/21 09:38:45;;;;;;;4.82;4.32;;;;;;;;;;5055539;27;100145;-76
2024/01/21 09:41:31;;;;;;;4.55;4.15;;;;;;;;;;5052141;27;102181;-75
2024/01/21 09:43:58;;;;;;;5.18;4.68;;;;;;;;;;5058856;27;100062;-75
2024/01/21 09:46:25;;;;;;;4.00;3.38;;;;;;;;;;5054971;27;100445;-77
2024/01/21 09:48:52;;;;;;;4.78;4.38;;;;;;;;;;5051045;27;99538;-75
2024/01/21 09:51:20;;;;;;;4.43;3.85;;;;;;;;;;5051422;27;99761;-76
2024/01/21 09:53:47;;;;;;;3.58;3.00;;;;;;;;;;5049613;27;99986;-76
2024/01/21 09:56:14;;;;;;;6.85;4.78;;;;;;;;;;5053701;27;100817;-76
2024/01/21 09:58:45;;;;;;;4.47;4.15;;;;;;;;;;5060906;27;99500;-76
2024/01/21 10:01:12;;;;;;;8.95;4.30;;;;;;;;;;5050881;27;99051;-76
2024/01/21 10:03:39;;;;;;;4.63;4.22;;;;;;;;;;5047719;27;100108;-75
2024/01/21 10:06:06;;;;;;;4.60;4.25;;;;;;;;;;5050467;27;100294;-76
2024/01/21 10:08:32;;;;;;;4.50;4.10;;;;;;;;;;5051525;27;99903;-76
2024/01/21 10:11:02;;;;;;;4.72;3.63;;;;;;;;;;5050232;27;99552;-77
2024/01/21 10:13:38;;;;;;;5.43;4.43;;;;;;;;;;5054365;27;99884;-75
2024/01/21 10:16:05;;;;;;;4.90;4.20;;;;;;;;;;5048977;27;99845;-75
2024/01/21 10:18:32;;;;;;;4.72;4.32;;;;;;;;;;5050493;27;100918;-75
2024/01/21 10:21:01;;;;;;;6.35;4.93;;;;;;;;;;5050836;27;102035;-75
2024/01/21 10:23:28;;;;;;;6.82;4.07;;;;;;;;;;5056085;27;99826;-75
2024/01/21 10:25:54;;;;;;;4.35;3.92;;;;;;;;;;5049867;27;100147;-75
2024/01/21 10:28:22;;;;;;;7.18;4.95;;;;;;;;;;5051770;27;100332;-75
2024/01/21 10:30:49;;;;;;;6.93;5.10;;;;;;;;;;5051555;27;100383;-77
2024/01/21 10:33:15;;;;;;;5.03;4.55;;;;;;;;;;5050245;27;100136;-76
2024/01/21 10:35:42;;;;;;;4.47;4.07;;;;;;;;;;5052820;27;99096;-77
2024/01/21 10:38:12;;;;;;;7.40;4.80;;;;;;;;;;5047689;27;100238;-75
2024/01/21 10:40:43;;;;;;;4.72;4.32;;;;;;;;;;5050518;27;99945;-75
2024/01/21 10:43:14;;;;;;;4.32;3.92;;;;;;;;;;5047024;27;99944;-77
2024/01/21 10:45:46;;;;;;;5.45;4.95;;;;;;;;;;5049706;27;103002;-75
2024/01/21 10:48:16;;;;;;;;;;;;;;;;;;5048836;27;99835;-76
2024/01/21 10:50:44;;;;;;;5.25;4.82;;;;;;;;;;5056134;27;128927;-76
2024/01/21 10:53:12;;;;;;;7.03;5.10;;;;;;;;;;5051371;27;100138;-75
2024/01/21 10:55:39;;;;;;;5.20;4.72;;;;;;;;;;5062886;27;100470;-74
2024/01/21 10:58:07;;;;;;;6.97;4.95;;;;;;;;;;5053306;27;100116;-73
2024/01/21 11:00:35;;;;;;;5.95;5.10;;;;;;;;;;5049921;27;99341;-74
2024/01/21 11:03:20;;;;;;;5.55;4.88;;;;;;;;;;5047426;27;98590;-77
2024/01/21 11:05:47;;;;;;;6.18;4.45;;;;;;;;;;5045436;27;100082;-78
2024/01/21 11:08:15;;;;;;;7.43;5.13;;;;;;;;;;5044342;27;99267;-78
2024/01/21 11:10:41;;;;;;;6.88;4.75;;;;;;;;;;5056931;27;100610;-78
2024/01/21 11:13:07;;;;;;;6.65;4.90;;;;;;;;;;5049717;27;100215;-79
2024/01/21 11:15:34;;;;;;;7.82;4.65;;;;;;;;;;5045561;27;99168;-79
2024/01/21 11:18:10;;;;;;;7.95;5.07;;;;;;;;;;5045366;27;100214;-79
2024/01/21 11:20:38;;;;;;;5.97;5.40;;;;;;;;;;5057589;27;99163;-79
2024/01/21 11:23:13;;;;;;;4.75;4.38;;;;;;;;;;5059654;27;100075;-79
2024/01/21 11:25:48;;;;;;;5.10;4.57;;;;;;;;;;5047847;27;100769;-79
2024/01/21 11:28:27;;;;;;;5.78;4.18;;;;;;;;;;5064092;27;99268;-79
2024/01/21 11:31:00;;;;;;;3.33;3.10;;;;;;;;;;5065919;27;99107;-79
2024/01/21 11:33:28;;;;;;;5.97;5.18;;;;;;;;;;5065168;27;101076;-79
2024/01/21 11:35:55;;;;;;;5.13;4.72;;;;;;;;;;5049514;27;98528;-79
2024/01/21 11:38:23;;;;;;;6.57;4.88;;;;;;;;;;5045471;27;100256;-79
2024/01/21 11:41:07;;;;;;;6.60;4.68;;;;;;;;;;5050799;27;100022;-80
2024/01/21 11:43:33;;;;;;;5.35;5.05;;;;;;;;;;5065711;27;100162;-78
2024/01/21 11:46:01;;;;;;;10.20;5.00;;;;;;;;;;5067681;27;99551;-79
2024/01/21 11:48:29;;;;;;;5.22;4.70;;;;;;;;;;5067380;27;100316;-78
2024/01/21 11:50:56;;;;;;;4.25;3.85;;;;;;;;;;5065805;27;99989;-77
2024/01/21 11:53:22;;;;;;;6.10;5.50;;;;;;;;;;5064642;27;100184;-77
2024/01/21 11:55:50;;;;;;;5.43;4.93;;;;;;;;;;5071165;27;99151;-76
2024/01/21 11:58:17;;;;;;;4.05;3.67;;;;;;;;;;5068301;27;100881;-78
2024/01/21 12:00:44;;;;;;;4.35;3.95;;;;;;;;;;5069181;27;100169;-78
2024/01/21 12:03:11;;;;;;;9.00;4.97;;;;;;;;;;5064946;27;99962;-76
2024/01/21 12:05:39;;;;;;;6.35;4.97;;;;;;;;;;5047897;27;99908;-77
2024/01/21 12:08:07;;;;;;;7.18;5.32;;;;;;;;;;5047729;27;99085;-76
2024/01/21 12:10:34;;;;;;;6.38;4.40;;;;;;;;;;5047433;27;99125;-77
2024/01/21 12:13:00;;;;;;;3.92;3.63;;;;;;;;;;5048037;27;99670;-77
2024/01/21 12:15:32;;;;;;;5.35;4.93;;;;;;;;;;5048945;27;100098;-76
2024/01/21 12:17:58;;;;;;;5.50;4.65;;;;;;;;;;5050628;27;99442;-79
2024/01/21 12:20:25;;;;;;;6.85;4.95;;;;;;;;;;5047803;27;99334;-76
2024/01/21 12:22:51;;;;;;;5.88;4.90;;;;;;;;;;5057582;27;100724;-77
2024/01/21 12:25:18;;;;;;;8.85;5.05;;;;;;;;;;5067865;27;100210;-77
2024/01/21 12:27:45;;;;;;;6.00;4.75;;;;;;;;;;5068342;27;98666;-75
2024/01/21 12:30:12;;;;;;;4.75;4.35;;;;;;;;;;5067487;27;100260;-76
2024/01/21 12:32:43;;;;;;;5.57;5.03;;;;;;;;;;5053814;27;100940;-77
2024/01/21 12:35:21;;;;;;;7.38;4.95;;;;;;;;;;5047985;27;99894;-77
2024/01/21 12:37:48;;;;;;;5.43;4.97;;;;;;;;;;5052916;27;99982;-77
2024/01/21 12:40:14;;;;;;;6.57;5.28;;;;;;;;;;5070509;27;99676;-78
2024/01/21 12:42:41;;;;;;;5.97;5.15;;;;;;;;;;5047534;27;98536;-78
2024/01/21 12:45:07;;;;;;;9.45;5.93;;;;;;;;;;5062767;27;100435;-78
2024/01/21 12:47:35;;;;;;;8.55;5.07;;;;;;;;;;5067661;27;99967;-78
2024/01/21 12:50:02;;;;;;;6.70;5.05;;;;;;;;;;5061006;27;100890;-77
2024/01/21 12:52:28;;;;;;;5.53;4.75;;;;;;;;;;5045932;27;100134;-77
2024/01/21 12:54:54;;;;;;;6.13;4.93;;;;;;;;;;5047857;27;100482;-75
2024/01/21 12:57:21;;;;;;;6.53;5.35;;;;;;;;;;5047848;27;101291;-75
2024/01/21 12:59:47;;;;;;;5.60;5.10;;;;;;;;;;5056487;27;100378;-75
2024/01/21 13:02:14;;;;;;;9.98;6.10;;;;;;;;;;5071071;27;100979;-74
2024/01/21 13:04:40;;;;;;;6.25;5.65;;;;;;;;;;5068709;27;99448;-75
2024/01/21 13:07:07;;;;;;;8.52;4.15;;;;;;;;;;5066849;27;99884;-74
2024/01/21 13:09:33;;;;;;;8.18;5.00;;;;;;;;;;5066239;27;99093;-75
2024/01/21 13:12:00;;;;;;;11.52;5.82;;;;;;;;;;5067240;27;101045;-75
2024/01/21 13:14:26;;;;;;;7.25;5.35;;;;;;;;;;5066945;27;99912;-75
2024/01/21 13:16:54;;;;;;;5.90;4.68;;;;;;;;;;5068932;27;99859;-74
2024/01/21 13:19:22;;;;;;;4.25;3.83;;;;;;;;;;5075654;27;101346;-73
2024/01/21 13:21:49;;;;;;;7.45;5.35;;;;;;;;;;5053218;27;100240;-74
2024/01/21 13:24:16;;;;;;;7.18;4.40;;;;;;;;;;5055551;27;99040;-74
2024/01/21 13:26:52;;;;;;;5.47;4.97;;;;;;;;;;5049444;27;100122;-74
2024/01/21 13:32:05;;;;;;;9.65;5.88;;;;;;;;;;5049966;27;100310;-74
2024/01/21 13:34:31;;;;;;;7.18;5.47;;;;;;;;;;5053750;27;100282;-75
2024/01/21 13:36:58;;;;;;;10.82;5.35;;;;;;;;;;5055368;27;101099;-73
2024/01/21 13:39:25;;;;;;;7.97;5.60;;;;;;;;;;5048866;27;100083;-73
2024/01/21 13:41:51;;;;;;;11.05;5.07;;;;;;;;;;5057984;27;99923;-73
2024/01/21 13:44:18;;;;;;;7.82;4.80;;;;;;;;;;5067986;27;100531;-74
2024/01/21 13:46:44;;;;;;;12.55;6.25;;;;;;;;;;5059106;27;99337;-72
2024/01/21 13:49:11;;;;;;;8.32;5.50;;;;;;;;;;5054623;27;100105;-72
2024/01/21 13:51:38;;;;;;;9.30;6.13;;;;;;;;;;5050684;27;100138;-72
2024/01/21 13:54:04;;;;;;;8.48;5.40;;;;;;;;;;5063491;27;100433;-74
2024/01/21 13:56:30;;;;;;;7.25;5.03;;;;;;;;;;5060848;27;98635;-75
2024/01/21 13:58:57;;;;;;;7.90;5.72;;;;;;;;;;5044828;27;100281;-73
2024/01/21 14:01:23;;;;;;;6.28;5.07;;;;;;;;;;5045086;27;100568;-74
2024/01/21 14:03:50;;;;;;;7.05;5.00;;;;;;;;;;5045906;27;100850;-74
2024/01/21 14:06:19;;;;;;;8.27;4.88;;;;;;;;;;5048736;27;100327;-73
2024/01/21 14:08:45;;;;;;;6.45;5.72;;;;;;;;;;5045815;27;99068;-75
2024/01/21 14:11:12;;;;;;;7.43;4.95;;;;;;;;;;5049367;27;101062;-74
2024/01/21 14:13:40;;;;;;;6.07;5.40;;;;;;;;;;5057174;27;99967;-74
2024/01/21 14:16:06;;;;;;;6.50;5.30;;;;;;;;;;5054668;27;99978;-73
2024/01/21 14:18:32;;;;;;;7.68;5.10;;;;;;;;;;5049204;27;99079;-74
2024/01/21 14:20:59;;;;;;;7.13;4.82;;;;;;;;;;5066174;27;100715;-74
2024/01/21 14:23:27;;;;;;;12.65;5.55;;;;;;;;;;5057504;27;99101;-74
2024/01/21 14:25:54;;;;;;;6.05;5.13;;;;;;;;;;5061392;27;100084;-74
2024/01/21 14:28:22;;;;;;;7.93;6.53;;;;;;;;;;5066350;27;98766;-74
2024/01/21 14:30:50;;;;;;;6.10;4.47;;;;;;;;;;5054222;27;100184;-74
2024/01/21 14:33:16;;;;;;;7.70;6.22;;;;;;;;;;5062605;27;99924;-75
2024/01/21 14:35:43;;;;;;;7.20;5.15;;;;;;;;;;5065134;27;100055;-74
2024/01/21 14:38:10;;;;;;;9.80;6.20;;;;;;;;;;5049233;27;100167;-74